Airfield :
LOGIN :

Register | Disclaimer

   EN    FR    IT 

 










Legend :    VFR   Marginal VFR   IFR   Intensive IFR   Very Intensive IFR
Visi :
Ceiling :
>= 8 km
>= 3000ft
5 to 8 km
1000 to 3000 ft
1500m to 5 km
500 to 1000 ft
800 to 1500m
200 to 500 ft
< 800m
< 200 ft
Symbols :   Thunderstorms  Fog  Heavy snow  Heavy precipitations  Wind > 20 kt
SIGMETs :     Misc.  Thunderstorms  Icing  Turbulence  Mountain Waves  Volcanic Ashes






- Airport Elevation : 779 ft
- IATA code : CMF


LFLB - Chambery / Aix-Les-Bains

CURRENT METAR :
  • 221430Z AUTO VRB02KT 9999 FEW033/// BKN056/// BKN066/// ///TCU 08/07 Q0991 TEMPO VRB15G30KT 3000 RA BKN012 OVC020

EXPIRED METARs :
  • 221400Z AUTO VRB02KT 9999 FEW033/// BKN072/// OVC130/// ///TCU 09/07 Q0992 TEMPO 3000 RA BKN012 OVC020
  • 221330Z AUTO VRB03KT 9999 FEW058 BKN078 OVC096 09/07 Q0992 TEMPO 3000 RA BKN012 OVC020
  • 221300Z AUTO 34005KT 9999 SCT074 BKN088 OVC120 08/07 Q0992 TEMPO 3000 RA BKN012 OVC020
  • 221230Z AUTO 36005KT 9999 FEW076 BKN100 OVC130 08/06 Q0993 TEMPO 3000 RA BKN012 OVC020
  • 221200Z AUTO 34006KT CAVOK 09/06 Q0993 NOSIG

TAF TAF LFLB
Valid from the 22 at 15:00 until the 23 at 15:00 UTC


221400Z 2215/2315 VRB08KT 6000 -RA BKN020 OVC050
TEMPO 2215/2219 3000 RA BKN012 OVC020
PROB30
TEMPO 2215/2219 VRB15G30KT
TEMPO 2219/2221 BKN012 OVC020
PROB30
TEMPO 2219/2221 3000 -SNRA BKN004 OVC020
FM222100 VRB05KT 9999 BKN040
TEMPO 2221/2306 BKN012
BECMG 2306/2309 18010KT NSC



MET'MAP, your aeronautical weather chart ! - Copyright ORBIFLY December 2007 - Disclaimer

ORBIFLY MET'MAP TEAM :

Programming & Development : Alexandra Zaïnal
Concept & original design : Baudouin d'Aumeries
Assistance for programming : Marc-Olivier Méhu
Technical & hardware support : Manuel Goepfert

Contact : metmap@orbifly.com




SOURCES & CREDITS :

   NOAA